sensor_id;sensor_type;location;lat;lon;timestamp;P1;durP1;ratioP1;P2;durP2;ratioP2
15385;SDS011;7791;47.246;9.648;2023-05-29T04:41:03;11.27;;;6.87;;
15385;SDS011;7791;47.246;9.648;2023-05-29T04:46:21;11.67;;;6.77;;
15385;SDS011;7791;47.246;9.648;2023-05-29T04:51:41;12.10;;;7.13;;
15385;SDS011;7791;47.246;9.648;2023-05-29T04:54:28;13.37;;;8.03;;
15385;SDS011;7791;47.246;9.648;2023-05-29T04:57:02;11.17;;;6.43;;
15385;SDS011;7791;47.246;9.648;2023-05-29T04:59:35;10.03;;;6.80;;
15385;SDS011;7791;47.246;9.648;2023-05-29T05:02:32;12.73;;;7.60;;
15385;SDS011;7791;47.246;9.648;2023-05-29T05:05:06;11.37;;;6.97;;
15385;SDS011;7791;47.246;9.648;2023-05-29T05:07:39;11.87;;;6.33;;
15385;SDS011;7791;47.246;9.648;2023-05-29T05:10:10;9.60;;;6.67;;
15385;SDS011;7791;47.246;9.648;2023-05-29T05:12:50;9.40;;;6.17;;
15385;SDS011;7791;47.246;9.648;2023-05-29T05:15:37;8.50;;;5.53;;
15385;SDS011;7791;47.246;9.648;2023-05-29T05:18:10;10.83;;;6.17;;
15385;SDS011;7791;47.246;9.648;2023-05-29T05:20:47;8.87;;;5.83;;
15385;SDS011;7791;47.246;9.648;2023-05-29T05:26:33;9.37;;;5.43;;
15385;SDS011;7791;47.246;9.648;2023-05-29T05:29:00;9.57;;;5.33;;
15385;SDS011;7791;47.246;9.648;2023-05-29T05:31:47;9.73;;;5.87;;
15385;SDS011;7791;47.246;9.648;2023-05-29T05:34:27;6.93;;;5.30;;
15385;SDS011;7791;47.246;9.648;2023-05-29T05:37:08;7.67;;;5.20;;
15385;SDS011;7791;47.246;9.648;2023-05-29T05:39:38;7.50;;;4.83;;
15385;SDS011;7791;47.246;9.648;2023-05-29T05:42:22;6.37;;;4.60;;
15385;SDS011;7791;47.246;9.648;2023-05-29T05:45:06;7.50;;;4.80;;
15385;SDS011;7791;47.246;9.648;2023-05-29T05:47:38;8.23;;;5.03;;
15385;SDS011;7791;47.246;9.648;2023-05-29T05:50:14;6.83;;;4.90;;
15385;SDS011;7791;47.246;9.648;2023-05-29T05:52:48;7.37;;;5.20;;
15385;SDS011;7791;47.246;9.648;2023-05-29T05:55:25;7.00;;;4.63;;
15385;SDS011;7791;47.246;9.648;2023-05-29T05:58:04;7.60;;;4.80;;
15385;SDS011;7791;47.246;9.648;2023-05-29T06:00:49;6.87;;;4.83;;
15385;SDS011;7791;47.246;9.648;2023-05-29T06:03:25;7.00;;;4.50;;
15385;SDS011;7791;47.246;9.648;2023-05-29T06:05:54;7.60;;;5.13;;
15385;SDS011;7791;47.246;9.648;2023-05-29T06:08:27;7.18;;;5.40;;
15385;SDS011;7791;47.246;9.648;2023-05-29T06:10:59;8.57;;;4.95;;
15385;SDS011;7791;47.246;9.648;2023-05-29T06:13:35;6.55;;;5.00;;
15385;SDS011;7791;47.246;9.648;2023-05-29T06:16:14;5.78;;;4.60;;
15385;SDS011;7791;47.246;9.648;2023-05-29T06:19:00;8.40;;;4.72;;
15385;SDS011;7791;47.246;9.648;2023-05-29T06:24:27;6.60;;;4.68;;
15385;SDS011;7791;47.246;9.648;2023-05-29T06:26:59;8.30;;;5.28;;
15385;SDS011;7791;47.246;9.648;2023-05-29T06:29:32;8.35;;;4.72;;
15385;SDS011;7791;47.246;9.648;2023-05-29T06:32:08;7.93;;;4.75;;
15385;SDS011;7791;47.246;9.648;2023-05-29T06:34:47;7.13;;;4.55;;
15385;SDS011;7791;47.246;9.648;2023-05-29T06:37:27;5.80;;;4.65;;
15385;SDS011;7791;47.246;9.648;2023-05-29T06:43:04;7.88;;;5.32;;
15385;SDS011;7791;47.246;9.648;2023-05-29T06:45:47;6.47;;;4.55;;
15385;SDS011;7791;47.246;9.648;2023-05-29T06:51:21;7.18;;;4.88;;
15385;SDS011;7791;47.246;9.648;2023-05-29T06:53:58;7.93;;;4.60;;
15385;SDS011;7791;47.246;9.648;2023-05-29T06:56:39;5.95;;;4.43;;
15385;SDS011;7791;47.246;9.648;2023-05-29T06:59:20;6.85;;;4.45;;
15385;SDS011;7791;47.246;9.648;2023-05-29T07:02:02;7.75;;;4.90;;
15385;SDS011;7791;47.246;9.648;2023-05-29T07:04:38;9.50;;;4.95;;
15385;SDS011;7791;47.246;9.648;2023-05-29T07:07:22;8.43;;;4.82;;
15385;SDS011;7791;47.246;9.648;2023-05-29T07:09:59;6.85;;;4.97;;
15385;SDS011;7791;47.246;9.648;2023-05-29T07:12:44;8.23;;;5.07;;
15385;SDS011;7791;47.246;9.648;2023-05-29T07:15:27;6.53;;;4.95;;
15385;SDS011;7791;47.246;9.648;2023-05-29T07:18:12;7.47;;;5.10;;
15385;SDS011;7791;47.246;9.648;2023-05-29T07:23:44;8.40;;;5.47;;
15385;SDS011;7791;47.246;9.648;2023-05-29T07:26:24;8.77;;;5.28;;
15385;SDS011;7791;47.246;9.648;2023-05-29T07:28:59;7.63;;;5.40;;
15385;SDS011;7791;47.246;9.648;2023-05-29T07:31:34;7.47;;;5.15;;
15385;SDS011;7791;47.246;9.648;2023-05-29T07:34:06;10.98;;;5.63;;
15385;SDS011;7791;47.246;9.648;2023-05-29T07:36:55;8.97;;;5.70;;
15385;SDS011;7791;47.246;9.648;2023-05-29T07:39:54;8.43;;;5.55;;
15385;SDS011;7791;47.246;9.648;2023-05-29T07:42:31;9.80;;;5.57;;
15385;SDS011;7791;47.246;9.648;2023-05-29T07:45:09;7.35;;;5.35;;
15385;SDS011;7791;47.246;9.648;2023-05-29T07:47:50;8.77;;;6.32;;
15385;SDS011;7791;47.246;9.648;2023-05-29T07:50:49;8.95;;;5.80;;
15385;SDS011;7791;47.246;9.648;2023-05-29T07:53:15;10.20;;;5.47;;
15385;SDS011;7791;47.246;9.648;2023-05-29T07:56:04;9.00;;;5.10;;
15385;SDS011;7791;47.246;9.648;2023-05-29T08:01:20;11.05;;;5.63;;
15385;SDS011;7791;47.246;9.648;2023-05-29T08:04:08;7.40;;;5.40;;
15385;SDS011;7791;47.246;9.648;2023-05-29T08:06:52;10.13;;;5.82;;
15385;SDS011;7791;47.246;9.648;2023-05-29T08:09:28;8.23;;;5.25;;
15385;SDS011;7791;47.246;9.648;2023-05-29T08:12:12;7.95;;;5.60;;
15385;SDS011;7791;47.246;9.648;2023-05-29T08:14:41;11.50;;;5.68;;
15385;SDS011;7791;47.246;9.648;2023-05-29T08:17:22;9.85;;;5.78;;
15385;SDS011;7791;47.246;9.648;2023-05-29T08:19:52;10.15;;;5.53;;
15385;SDS011;7791;47.246;9.648;2023-05-29T08:22:34;8.77;;;5.30;;
15385;SDS011;7791;47.246;9.648;2023-05-29T08:25:30;10.10;;;5.72;;
15385;SDS011;7791;47.246;9.648;2023-05-29T08:30:43;7.35;;;5.60;;
15385;SDS011;7791;47.246;9.648;2023-05-29T08:33:19;9.98;;;5.80;;
15385;SDS011;7791;47.246;9.648;2023-05-29T08:35:53;9.32;;;5.03;;
15385;SDS011;7791;47.246;9.648;2023-05-29T08:41:44;8.18;;;5.25;;
15385;SDS011;7791;47.246;9.648;2023-05-29T08:44:36;8.40;;;5.38;;
15385;SDS011;7791;47.246;9.648;2023-05-29T08:47:20;8.75;;;5.75;;
15385;SDS011;7791;47.246;9.648;2023-05-29T08:49:57;10.07;;;5.25;;
15385;SDS011;7791;47.246;9.648;2023-05-29T08:52:32;9.95;;;5.30;;
15385;SDS011;7791;47.246;9.648;2023-05-29T08:55:10;9.60;;;5.22;;
15385;SDS011;7791;47.246;9.648;2023-05-29T08:57:42;7.93;;;4.80;;
15385;SDS011;7791;47.246;9.648;2023-05-29T09:00:21;9.45;;;5.80;;
15385;SDS011;7791;47.246;9.648;2023-05-29T09:02:53;9.50;;;5.88;;
15385;SDS011;7791;47.246;9.648;2023-05-29T09:05:46;7.65;;;5.35;;
15385;SDS011;7791;47.246;9.648;2023-05-29T09:08:18;7.95;;;4.78;;
15385;SDS011;7791;47.246;9.648;2023-05-29T09:10:45;8.40;;;5.13;;
15385;SDS011;7791;47.246;9.648;2023-05-29T09:13:50;8.65;;;5.00;;
15385;SDS011;7791;47.246;9.648;2023-05-29T09:16:54;8.10;;;5.20;;
15385;SDS011;7791;47.246;9.648;2023-05-29T09:19:35;8.07;;;4.82;;
15385;SDS011;7791;47.246;9.648;2023-05-29T09:22:10;8.30;;;4.88;;
15385;SDS011;7791;47.246;9.648;2023-05-29T09:24:45;9.75;;;4.80;;
15385;SDS011;7791;47.246;9.648;2023-05-29T09:27:43;8.30;;;5.18;;
15385;SDS011;7791;47.246;9.648;2023-05-29T09:30:39;10.20;;;5.03;;
15385;SDS011;7791;47.246;9.648;2023-05-29T09:33:24;9.00;;;5.28;;
15385;SDS011;7791;47.246;9.648;2023-05-29T09:36:19;10.75;;;5.18;;
15385;SDS011;7791;47.246;9.648;2023-05-29T09:41:58;10.50;;;5.88;;
15385;SDS011;7791;47.246;9.648;2023-05-29T09:44:24;9.57;;;5.13;;
15385;SDS011;7791;47.246;9.648;2023-05-29T09:47:04;7.88;;;4.63;;
15385;SDS011;7791;47.246;9.648;2023-05-29T09:50:12;8.18;;;5.20;;
15385;SDS011;7791;47.246;9.648;2023-05-29T09:52:55;12.27;;;5.70;;
15385;SDS011;7791;47.246;9.648;2023-05-29T09:55:44;9.35;;;5.53;;
15385;SDS011;7791;47.246;9.648;2023-05-29T09:58:28;8.95;;;5.22;;
15385;SDS011;7791;47.246;9.648;2023-05-29T10:04:29;12.23;;;6.07;;
15385;SDS011;7791;47.246;9.648;2023-05-29T10:07:05;9.35;;;5.40;;
15385;SDS011;7791;47.246;9.648;2023-05-29T10:24:40;9.80;;;5.00;;
15385;SDS011;7791;47.246;9.648;2023-05-29T10:36:30;7.93;;;4.82;;
15385;SDS011;7791;47.246;9.648;2023-05-29T10:39:16;10.80;;;5.00;;
15385;SDS011;7791;47.246;9.648;2023-05-29T10:45:47;9.30;;;5.40;;
15385;SDS011;7791;47.246;9.648;2023-05-29T10:54:39;7.00;;;5.20;;
15385;SDS011;7791;47.246;9.648;2023-05-29T10:57:27;8.77;;;5.28;;
15385;SDS011;7791;47.246;9.648;2023-05-29T11:00:15;8.45;;;4.55;;
15385;SDS011;7791;47.246;9.648;2023-05-29T11:03:23;7.57;;;4.95;;
15385;SDS011;7791;47.246;9.648;2023-05-29T11:06:01;7.10;;;4.75;;
15385;SDS011;7791;47.246;9.648;2023-05-29T11:08:47;8.75;;;4.78;;
15385;SDS011;7791;47.246;9.648;2023-05-29T11:11:33;9.65;;;4.90;;
15385;SDS011;7791;47.246;9.648;2023-05-29T11:24:09;7.70;;;4.88;;
15385;SDS011;7791;47.246;9.648;2023-05-29T11:26:52;8.05;;;4.82;;
15385;SDS011;7791;47.246;9.648;2023-05-29T11:29:23;7.53;;;4.78;;
15385;SDS011;7791;47.246;9.648;2023-05-29T11:32:06;9.27;;;4.93;;
15385;SDS011;7791;47.246;9.648;2023-05-29T11:40:52;8.20;;;4.78;;
15385;SDS011;7791;47.246;9.648;2023-05-29T11:46:19;8.30;;;4.65;;
15385;SDS011;7791;47.246;9.648;2023-05-29T11:49:10;6.78;;;4.72;;
15385;SDS011;7791;47.246;9.648;2023-05-29T11:52:04;11.43;;;4.97;;
15385;SDS011;7791;47.246;9.648;2023-05-29T11:54:43;8.63;;;4.95;;
15385;SDS011;7791;47.246;9.648;2023-05-29T11:57:37;10.40;;;4.95;;
15385;SDS011;7791;47.246;9.648;2023-05-29T12:01:41;7.35;;;4.30;;
15385;SDS011;7791;47.246;9.648;2023-05-29T12:03:59;9.77;;;4.60;;
15385;SDS011;7791;47.246;9.648;2023-05-29T12:09:46;7.40;;;4.35;;
15385;SDS011;7791;47.246;9.648;2023-05-29T12:12:30;10.25;;;4.80;;
15385;SDS011;7791;47.246;9.648;2023-05-29T12:15:13;10.18;;;4.93;;
15385;SDS011;7791;47.246;9.648;2023-05-29T12:23:36;8.73;;;4.97;;
15385;SDS011;7791;47.246;9.648;2023-05-29T12:26:04;7.90;;;4.78;;
15385;SDS011;7791;47.246;9.648;2023-05-29T12:28:41;9.25;;;4.25;;
15385;SDS011;7791;47.246;9.648;2023-05-29T12:31:31;11.38;;;4.68;;
15385;SDS011;7791;47.246;9.648;2023-05-29T12:34:07;7.75;;;4.55;;
15385;SDS011;7791;47.246;9.648;2023-05-29T12:40:28;12.32;;;4.97;;
15385;SDS011;7791;47.246;9.648;2023-05-29T12:52:12;7.35;;;4.15;;
15385;SDS011;7791;47.246;9.648;2023-05-29T12:54:45;8.50;;;4.55;;
15385;SDS011;7791;47.246;9.648;2023-05-29T12:57:49;8.02;;;4.82;;
15385;SDS011;7791;47.246;9.648;2023-05-29T13:00:17;6.28;;;3.83;;
15385;SDS011;7791;47.246;9.648;2023-05-29T13:03:13;5.88;;;3.85;;
15385;SDS011;7791;47.246;9.648;2023-05-29T13:17:39;6.63;;;4.18;;
15385;SDS011;7791;47.246;9.648;2023-05-29T13:20:08;8.32;;;4.60;;
15385;SDS011;7791;47.246;9.648;2023-05-29T13:22:49;6.10;;;4.13;;
15385;SDS011;7791;47.246;9.648;2023-05-29T13:31:18;9.98;;;4.38;;
15385;SDS011;7791;47.246;9.648;2023-05-29T13:39:23;8.85;;;4.38;;
15385;SDS011;7791;47.246;9.648;2023-05-29T13:42:29;6.78;;;3.97;;
15385;SDS011;7791;47.246;9.648;2023-05-29T13:50:55;6.90;;;4.38;;
15385;SDS011;7791;47.246;9.648;2023-05-29T13:53:43;8.07;;;4.20;;
15385;SDS011;7791;47.246;9.648;2023-05-29T13:56:30;11.38;;;4.97;;
15385;SDS011;7791;47.246;9.648;2023-05-29T14:02:20;7.55;;;4.57;;
15385;SDS011;7791;47.246;9.648;2023-05-29T14:04:55;8.45;;;4.43;;
15385;SDS011;7791;47.246;9.648;2023-05-29T14:07:58;6.72;;;4.30;;
15385;SDS011;7791;47.246;9.648;2023-05-29T14:10:49;7.28;;;3.95;;
15385;SDS011;7791;47.246;9.648;2023-05-29T14:13:48;7.78;;;4.35;;
15385;SDS011;7791;47.246;9.648;2023-05-29T14:16:45;8.52;;;4.63;;
15385;SDS011;7791;47.246;9.648;2023-05-29T14:25:18;9.93;;;4.53;;
15385;SDS011;7791;47.246;9.648;2023-05-29T14:28:16;8.57;;;4.88;;
15385;SDS011;7791;47.246;9.648;2023-05-29T14:33:35;6.55;;;4.65;;
15385;SDS011;7791;47.246;9.648;2023-05-29T14:36:22;10.27;;;4.65;;
15385;SDS011;7791;47.246;9.648;2023-05-29T14:39:01;9.70;;;4.45;;
15385;SDS011;7791;47.246;9.648;2023-05-29T14:44:47;9.77;;;4.55;;
15385;SDS011;7791;47.246;9.648;2023-05-29T14:47:14;11.57;;;4.85;;
15385;SDS011;7791;47.246;9.648;2023-05-29T14:50:06;6.93;;;4.45;;
15385;SDS011;7791;47.246;9.648;2023-05-29T14:52:38;7.40;;;4.38;;
15385;SDS011;7791;47.246;9.648;2023-05-29T14:55:26;8.02;;;4.65;;
15385;SDS011;7791;47.246;9.648;2023-05-29T15:00:45;6.65;;;4.72;;
15385;SDS011;7791;47.246;9.648;2023-05-29T15:03:28;5.43;;;4.00;;
15385;SDS011;7791;47.246;9.648;2023-05-29T15:09:16;8.80;;;4.80;;
15385;SDS011;7791;47.246;9.648;2023-05-29T15:24:25;8.63;;;4.82;;
15385;SDS011;7791;47.246;9.648;2023-05-29T15:30:21;9.73;;;4.38;;
15385;SDS011;7791;47.246;9.648;2023-05-29T15:35:45;7.13;;;4.80;;
15385;SDS011;7791;47.246;9.648;2023-05-29T15:41:11;8.82;;;4.38;;
15385;SDS011;7791;47.246;9.648;2023-05-29T15:43:46;6.38;;;4.30;;
15385;SDS011;7791;47.246;9.648;2023-05-29T15:51:53;6.78;;;4.30;;
15385;SDS011;7791;47.246;9.648;2023-05-29T15:57:51;7.63;;;4.82;;
15385;SDS011;7791;47.246;9.648;2023-05-29T16:00:54;7.90;;;4.90;;
15385;SDS011;7791;47.246;9.648;2023-05-29T16:06:31;6.82;;;4.93;;
15385;SDS011;7791;47.246;9.648;2023-05-29T16:09:47;7.60;;;4.35;;
15385;SDS011;7791;47.246;9.648;2023-05-29T16:15:25;6.90;;;4.30;;
15385;SDS011;7791;47.246;9.648;2023-05-29T16:18:12;8.90;;;4.72;;
15385;SDS011;7791;47.246;9.648;2023-05-29T16:21:07;7.82;;;4.70;;
15385;SDS011;7791;47.246;9.648;2023-05-29T16:24:05;7.85;;;4.72;;
15385;SDS011;7791;47.246;9.648;2023-05-29T16:29:42;6.00;;;4.03;;
15385;SDS011;7791;47.246;9.648;2023-05-29T16:35:20;7.05;;;4.50;;
15385;SDS011;7791;47.246;9.648;2023-05-29T16:38:14;7.20;;;4.85;;
15385;SDS011;7791;47.246;9.648;2023-05-29T16:44:03;5.82;;;4.20;;
15385;SDS011;7791;47.246;9.648;2023-05-29T16:47:07;11.18;;;4.47;;
15385;SDS011;7791;47.246;9.648;2023-05-29T16:52:58;9.77;;;4.97;;
15385;SDS011;7791;47.246;9.648;2023-05-29T16:55:48;6.10;;;4.57;;
15385;SDS011;7791;47.246;9.648;2023-05-29T17:04:33;6.63;;;4.70;;
15385;SDS011;7791;47.246;9.648;2023-05-29T17:13:12;6.55;;;4.68;;
15385;SDS011;7791;47.246;9.648;2023-05-29T17:16:01;7.43;;;4.68;;
15385;SDS011;7791;47.246;9.648;2023-05-29T17:19:01;11.43;;;5.00;;
15385;SDS011;7791;47.246;9.648;2023-05-29T17:21:43;7.05;;;4.80;;
15385;SDS011;7791;47.246;9.648;2023-05-29T17:27:18;8.85;;;4.25;;
15385;SDS011;7791;47.246;9.648;2023-05-29T17:29:48;8.30;;;5.05;;
15385;SDS011;7791;47.246;9.648;2023-05-29T17:32:28;9.07;;;4.60;;
15385;SDS011;7791;47.246;9.648;2023-05-29T17:35:03;9.05;;;4.50;;
15385;SDS011;7791;47.246;9.648;2023-05-29T17:40:22;8.05;;;4.50;;
15385;SDS011;7791;47.246;9.648;2023-05-29T17:40:47;10.77;;;4.72;;
15385;SDS011;7791;47.246;9.648;2023-05-29T17:46:12;7.38;;;4.57;;
15385;SDS011;7791;47.246;9.648;2023-05-29T17:48:40;9.25;;;4.53;;
15385;SDS011;7791;47.246;9.648;2023-05-29T17:51:15;8.88;;;4.95;;
15385;SDS011;7791;47.246;9.648;2023-05-29T17:54:37;8.55;;;4.63;;
15385;SDS011;7791;47.246;9.648;2023-05-29T17:57:28;8.55;;;5.05;;
15385;SDS011;7791;47.246;9.648;2023-05-29T18:03:24;7.03;;;4.93;;
15385;SDS011;7791;47.246;9.648;2023-05-29T18:15:05;6.27;;;4.00;;
15385;SDS011;7791;47.246;9.648;2023-05-29T18:23:15;6.90;;;3.80;;
15385;SDS011;7791;47.246;9.648;2023-05-29T18:25:54;11.50;;;4.53;;
15385;SDS011;7791;47.246;9.648;2023-05-29T18:31:13;8.10;;;4.37;;
15385;SDS011;7791;47.246;9.648;2023-05-29T18:34:34;8.27;;;4.40;;
15385;SDS011;7791;47.246;9.648;2023-05-29T18:40:12;10.50;;;4.60;;
15385;SDS011;7791;47.246;9.648;2023-05-29T18:43:12;7.03;;;4.43;;
15385;SDS011;7791;47.246;9.648;2023-05-29T18:45:45;8.33;;;4.47;;
15385;SDS011;7791;47.246;9.648;2023-05-29T18:48:15;6.27;;;4.47;;
15385;SDS011;7791;47.246;9.648;2023-05-29T18:51:01;8.00;;;4.10;;
15385;SDS011;7791;47.246;9.648;2023-05-29T18:53:28;6.80;;;4.00;;
15385;SDS011;7791;47.246;9.648;2023-05-29T18:57:07;7.73;;;4.20;;
15385;SDS011;7791;47.246;9.648;2023-05-29T19:01:52;7.47;;;4.23;;
15385;SDS011;7791;47.246;9.648;2023-05-29T19:04:47;7.60;;;4.07;;
15385;SDS011;7791;47.246;9.648;2023-05-29T19:10:42;8.07;;;4.50;;
15385;SDS011;7791;47.246;9.648;2023-05-29T19:13:12;8.37;;;4.47;;
15385;SDS011;7791;47.246;9.648;2023-05-29T19:16:07;11.93;;;5.00;;
15385;SDS011;7791;47.246;9.648;2023-05-29T19:21:53;8.00;;;4.37;;
15385;SDS011;7791;47.246;9.648;2023-05-29T19:24:36;11.17;;;4.50;;
15385;SDS011;7791;47.246;9.648;2023-05-29T19:27:25;7.93;;;5.03;;
15385;SDS011;7791;47.246;9.648;2023-05-29T19:33:11;8.13;;;4.80;;
15385;SDS011;7791;47.246;9.648;2023-05-29T19:35:49;9.20;;;4.97;;
15385;SDS011;7791;47.246;9.648;2023-05-29T19:41:40;10.60;;;5.27;;
15385;SDS011;7791;47.246;9.648;2023-05-29T19:44:23;14.80;;;5.07;;
15385;SDS011;7791;47.246;9.648;2023-05-29T19:47:05;10.10;;;5.20;;
15385;SDS011;7791;47.246;9.648;2023-05-29T19:55:56;7.80;;;4.90;;
15385;SDS011;7791;47.246;9.648;2023-05-29T19:58:54;9.60;;;5.20;;
15385;SDS011;7791;47.246;9.648;2023-05-29T20:07:51;20.60;;;5.30;;
15385;SDS011;7791;47.246;9.648;2023-05-29T20:13:16;10.10;;;5.27;;
15385;SDS011;7791;47.246;9.648;2023-05-29T20:16:07;10.47;;;4.60;;
15385;SDS011;7791;47.246;9.648;2023-05-29T20:18:56;8.93;;;4.63;;
15385;SDS011;7791;47.246;9.648;2023-05-29T20:24:32;7.33;;;5.07;;
15385;SDS011;7791;47.246;9.648;2023-05-29T20:27:14;10.13;;;4.73;;
15385;SDS011;7791;47.246;9.648;2023-05-29T20:30:13;9.73;;;4.87;;
15385;SDS011;7791;47.246;9.648;2023-05-29T20:33:13;11.40;;;5.00;;
15385;SDS011;7791;47.246;9.648;2023-05-29T20:38:24;8.00;;;5.10;;
15385;SDS011;7791;47.246;9.648;2023-05-29T20:41:46;10.67;;;5.37;;
15385;SDS011;7791;47.246;9.648;2023-05-29T20:44:20;11.27;;;5.10;;
15385;SDS011;7791;47.246;9.648;2023-05-29T20:53:23;9.87;;;5.37;;
15385;SDS011;7791;47.246;9.648;2023-05-29T20:56:13;9.70;;;5.30;;
15385;SDS011;7791;47.246;9.648;2023-05-29T21:23:11;8.93;;;5.10;;
15385;SDS011;7791;47.246;9.648;2023-05-29T21:25:56;9.97;;;5.77;;
15385;SDS011;7791;47.246;9.648;2023-05-29T21:28:36;8.70;;;5.07;;
15385;SDS011;7791;47.246;9.648;2023-05-29T21:33:18;10.70;;;5.23;;
15385;SDS011;7791;47.246;9.648;2023-05-29T21:39:55;8.10;;;4.90;;
15385;SDS011;7791;47.246;9.648;2023-05-29T21:42:31;9.30;;;5.40;;
15385;SDS011;7791;47.246;9.648;2023-05-29T21:48:06;10.47;;;6.13;;
15385;SDS011;7791;47.246;9.648;2023-05-29T21:50:59;9.30;;;5.50;;
15385;SDS011;7791;47.246;9.648;2023-05-29T21:53:45;9.77;;;5.27;;
15385;SDS011;7791;47.246;9.648;2023-05-29T21:56:38;6.73;;;4.80;;
15385;SDS011;7791;47.246;9.648;2023-05-29T22:02:20;8.20;;;5.07;;
15385;SDS011;7791;47.246;9.648;2023-05-29T22:05:23;9.03;;;4.50;;
15385;SDS011;7791;47.246;9.648;2023-05-29T22:08:27;8.70;;;5.23;;
15385;SDS011;7791;47.246;9.648;2023-05-29T22:11:11;8.80;;;4.90;;
15385;SDS011;7791;47.246;9.648;2023-05-29T22:14:02;7.57;;;5.00;;
15385;SDS011;7791;47.246;9.648;2023-05-29T22:16:43;8.53;;;5.30;;
15385;SDS011;7791;47.246;9.648;2023-05-29T22:37:27;9.30;;;5.93;;
15385;SDS011;7791;47.246;9.648;2023-05-29T22:43:34;10.53;;;6.00;;
15385;SDS011;7791;47.246;9.648;2023-05-29T22:46:22;11.70;;;6.50;;
15385;SDS011;7791;47.246;9.648;2023-05-29T22:48:58;13.37;;;6.20;;
15385;SDS011;7791;47.246;9.648;2023-05-29T22:51:35;9.87;;;5.67;;
15385;SDS011;7791;47.246;9.648;2023-05-29T23:00:39;13.37;;;7.40;;
15385;SDS011;7791;47.246;9.648;2023-05-29T23:03:37;12.10;;;6.53;;
15385;SDS011;7791;47.246;9.648;2023-05-29T23:07:26;12.03;;;6.87;;
15385;SDS011;7791;47.246;9.648;2023-05-29T23:09:35;13.90;;;7.17;;
15385;SDS011;7791;47.246;9.648;2023-05-29T23:15:12;11.43;;;6.60;;
15385;SDS011;7791;47.246;9.648;2023-05-29T23:17:45;12.90;;;7.00;;
15385;SDS011;7791;47.246;9.648;2023-05-29T23:26:39;13.13;;;6.23;;
15385;SDS011;7791;47.246;9.648;2023-05-29T23:35:09;12.27;;;5.70;;
15385;SDS011;7791;47.246;9.648;2023-05-29T23:39:01;9.60;;;5.80;;
15385;SDS011;7791;47.246;9.648;2023-05-29T23:41:07;10.83;;;5.73;;
15385;SDS011;7791;47.246;9.648;2023-05-29T23:43:40;10.73;;;6.07;;
15385;SDS011;7791;47.246;9.648;2023-05-29T23:46:31;13.10;;;5.80;;
15385;SDS011;7791;47.246;9.648;2023-05-29T23:49:45;11.00;;;6.63;;
15385;SDS011;7791;47.246;9.648;2023-05-29T23:55:27;10.47;;;6.17;;
